Time;durP1;ratioP1;P1;durP2;ratioP2;P2;SDS_P1;SDS_P2;PMS_P1;PMS_P2;Temp;Humidity;BMP_temperature;BMP_pressure;BME280_temperature;BME280_humidity;BME280_pressure;Samples;Min_cycle;Max_cycle;Signal;HPM_P1;HPM_P2
2021/01/05 15:37:26;;;;;;;63.78;31.33;;;0.10;97.20;;;;;;5132578;27;20712;-92
2021/01/05 15:39:52;;;;;;;66.80;31.35;;;0.10;97.50;;;;;;5129192;27;20024;-92
2021/01/05 15:42:17;;;;;;;67.72;33.00;;;0.10;97.60;;;;;;5125581;28;20066;-93
2021/01/05 15:44:43;;;;;;;65.93;34.25;;;0.20;97.60;;;;;;5114005;28;20023;-92
2021/01/05 15:47:09;;;;;;;54.35;24.13;;;0.40;97.60;;;;;;5114752;28;20075;-93
2021/01/05 15:49:34;;;;;;;56.38;27.38;;;0.50;97.10;;;;;;5113787;28;20027;-93
2021/01/05 15:52:00;;;;;;;59.83;31.75;;;0.50;96.80;;;;;;5112887;28;20034;-92
2021/01/05 15:54:26;;;;;;;60.30;30.67;;;0.60;96.70;;;;;;5132278;28;20031;-93
2021/01/05 15:56:53;;;;;;;46.33;21.83;;;0.70;96.70;;;;;;5114534;28;20062;-93
2021/01/05 15:59:20;;;;;;;46.22;23.83;;;0.80;96.30;;;;;;5132220;28;20061;-93
2021/01/05 16:01:46;;;;;;;59.83;29.27;;;0.80;96.20;;;;;;5105957;28;20035;-93
2021/01/05 16:04:12;;;;;;;56.42;31.80;;;0.80;96.00;;;;;;5100959;28;20016;-92
2021/01/05 16:06:47;;;;;;;58.50;30.23;;;0.80;95.90;;;;;;5103021;28;20414;-93
2021/01/05 16:09:14;;;;;;;56.25;30.55;;;0.90;96.10;;;;;;5103740;28;20019;-93
2021/01/05 16:11:46;;;;;;;55.75;27.85;;;0.90;95.80;;;;;;5116658;28;20375;-93
2021/01/05 16:14:13;;;;;;;59.53;31.30;;;0.90;95.60;;;;;;5127883;28;20030;-93
2021/01/05 16:16:40;;;;;;;53.53;25.92;;;0.90;95.50;;;;;;5130716;28;20497;-92
2021/01/05 16:19:06;;;;;;;59.08;29.77;;;1.00;95.60;;;;;;5111689;28;20028;-94
2021/01/05 16:21:32;;;;;;;53.72;25.98;;;1.00;95.40;;;;;;5096279;28;20417;-93
2021/01/05 16:23:58;;;;;;;60.50;28.80;;;1.00;95.20;;;;;;5113209;28;20033;-94
2021/01/05 16:26:27;;;;;;;64.32;34.00;;;1.00;95.20;;;;;;5112815;28;20080;-93
2021/01/05 16:28:52;;;;;;;55.50;29.40;;;1.00;95.00;;;;;;5112939;28;20352;-92
2021/01/05 16:31:18;;;;;;;59.83;31.38;;;1.00;94.90;;;;;;5112928;28;20020;-92
2021/01/05 16:33:44;;;;;;;67.75;33.33;;;1.00;94.80;;;;;;5131900;28;20020;-92
2021/01/05 16:36:10;;;;;;;60.50;26.95;;;1.00;94.90;;;;;;5102258;28;20087;-92
2021/01/05 16:38:36;;;;;;;63.30;32.88;;;1.00;94.80;;;;;;5093062;28;21358;-93
2021/01/05 16:41:02;;;;;;;69.97;34.00;;;1.10;95.10;;;;;;5089976;28;20028;-91
2021/01/05 16:43:28;;;;;;;64.15;30.92;;;1.10;94.90;;;;;;5111198;28;20031;-94
2021/01/05 16:45:55;;;;;;;54.83;25.15;;;1.10;94.80;;;;;;5093262;28;20102;-92
2021/01/05 16:48:21;;;;;;;71.90;33.40;;;1.10;94.80;;;;;;5081970;28;20051;-92
2021/01/05 16:50:48;;;;;;;70.05;35.92;;;1.10;94.60;;;;;;5097764;28;20023;-93
2021/01/05 16:53:14;;;;;;;70.93;38.50;;;1.10;94.50;;;;;;5097363;28;20024;-91
2021/01/05 16:55:41;;;;;;;73.03;36.92;;;1.20;94.70;;;;;;5096303;28;20039;-92
2021/01/05 16:58:14;;;;;;;44.92;21.88;;;1.10;94.70;;;;;;5096235;28;20032;-93
2021/01/05 17:00:40;;;;;;;142.88;76.00;;;1.10;94.40;;;;;;5078714;28;20020;-92
2021/01/05 17:03:06;;;;;;;87.07;44.25;;;1.10;94.40;;;;;;5078711;28;20093;-92
2021/01/05 17:05:31;;;;;;;61.10;31.05;;;1.20;94.50;;;;;;5076545;28;20043;-93
2021/01/05 17:07:59;;;;;;;147.45;74.53;;;1.10;94.50;;;;;;5077651;28;20028;-93
2021/01/05 17:10:28;;;;;;;53.25;27.70;;;1.10;94.60;;;;;;5077905;28;20046;-92
2021/01/05 17:12:54;;;;;;;64.45;35.05;;;1.10;94.30;;;;;;5093378;28;20027;-92
2021/01/05 17:15:22;;;;;;;65.32;32.08;;;1.10;94.30;;;;;;5095648;28;20024;-92
2021/01/05 17:17:48;;;;;;;58.05;31.80;;;1.10;94.40;;;;;;5095864;28;20047;-92
2021/01/05 17:20:22;;;;;;;58.75;31.20;;;1.10;94.30;;;;;;5096118;28;20028;-93
2021/01/05 17:22:48;;;;;;;62.38;30.95;;;1.10;94.40;;;;;;5077752;28;20032;-93
2021/01/05 17:25:17;;;;;;;52.40;26.33;;;1.10;94.30;;;;;;5077873;28;20040;-92
2021/01/05 17:27:43;;;;;;;61.10;32.30;;;1.10;94.40;;;;;;5095873;28;20095;-92
2021/01/05 17:30:15;;;;;;;63.70;33.08;;;1.10;94.40;;;;;;5077802;28;20046;-92
2021/01/05 17:32:40;;;;;;;64.13;34.22;;;1.10;94.50;;;;;;5095891;28;20050;-92
2021/01/05 17:35:07;;;;;;;55.50;25.08;;;1.10;94.40;;;;;;5077925;28;20052;-92
2021/01/05 17:37:32;;;;;;;57.60;31.17;;;1.10;94.20;;;;;;5115853;28;20015;-92
2021/01/05 17:39:58;;;;;;;57.80;28.08;;;1.10;94.30;;;;;;5115832;28;20019;-92
2021/01/05 17:42:26;;;;;;;60.05;32.08;;;1.10;94.30;;;;;;5097941;28;20062;-90
2021/01/05 17:44:52;;;;;;;51.22;25.35;;;1.10;94.30;;;;;;5114932;28;20020;-92
2021/01/05 17:47:18;;;;;;;44.38;23.17;;;1.10;94.20;;;;;;5114080;28;20076;-91
2021/01/05 17:49:43;;;;;;;49.92;24.98;;;1.10;94.10;;;;;;5115585;28;20032;-91
2021/01/05 17:52:09;;;;;;;56.60;29.30;;;1.10;94.10;;;;;;5115091;28;20061;-91
2021/01/05 17:54:37;;;;;;;53.53;27.65;;;1.10;94.10;;;;;;5115587;28;20019;-91
2021/01/05 17:57:04;;;;;;;54.92;29.08;;;1.10;94.00;;;;;;5112763;28;20059;-92
2021/01/05 17:59:29;;;;;;;59.72;30.90;;;1.10;94.10;;;;;;5095320;28;20038;-93
2021/01/05 18:01:55;;;;;;;61.53;34.72;;;1.10;94.10;;;;;;5096507;28;20102;-92
2021/01/05 18:04:21;;;;;;;67.32;39.92;;;1.20;94.10;;;;;;5093520;28;20053;-91
2021/01/05 18:06:46;;;;;;;58.95;33.10;;;1.20;94.30;;;;;;5097663;28;20114;-91
2021/01/05 18:09:12;;;;;;;48.58;25.77;;;1.20;94.10;;;;;;5098475;28;20024;-92
2021/01/05 18:11:38;;;;;;;54.50;24.50;;;1.20;94.00;;;;;;5114384;28;20031;-92
2021/01/05 18:14:05;;;;;;;55.75;29.52;;;1.20;94.00;;;;;;5115331;28;20028;-92
2021/01/05 18:16:31;;;;;;;60.58;34.35;;;1.20;94.10;;;;;;5115427;28;20034;-92
2021/01/05 18:18:57;;;;;;;52.65;26.75;;;1.20;94.00;;;;;;5097068;28;20051;-92
2021/01/05 18:21:23;;;;;;;58.10;29.75;;;1.20;93.90;;;;;;5115336;28;20102;-92
2021/01/05 18:23:50;;;;;;;51.63;26.05;;;1.20;94.00;;;;;;5115603;28;20051;-93
2021/01/05 18:26:16;;;;;;;58.63;29.42;;;1.20;93.80;;;;;;5115150;28;20027;-92
2021/01/05 18:28:42;;;;;;;54.38;28.25;;;1.20;93.80;;;;;;5096979;28;20076;-94
2021/01/05 18:31:10;;;;;;;72.82;36.97;;;1.20;93.80;;;;;;5096986;28;20034;-92
2021/01/05 18:33:36;;;;;;;67.15;36.40;;;1.20;94.00;;;;;;5096770;28;20460;-92
2021/01/05 18:36:02;;;;;;;71.13;37.47;;;1.20;94.10;;;;;;5096607;28;20051;-93
2021/01/05 18:38:28;;;;;;;67.40;34.58;;;1.30;94.00;;;;;;5096571;28;20032;-92
2021/01/05 18:40:53;;;;;;;67.90;32.17;;;1.30;94.00;;;;;;5096719;28;20399;-93
2021/01/05 18:43:19;;;;;;;49.60;20.85;;;1.30;93.90;;;;;;5096723;28;20036;-92
2021/01/05 18:45:45;;;;;;;58.13;33.55;;;1.30;93.80;;;;;;5115110;28;20054;-91
2021/01/05 18:48:10;;;;;;;60.72;31.48;;;1.30;93.90;;;;;;5114831;28;20103;-92
2021/01/05 18:50:39;;;;;;;58.38;31.38;;;1.30;94.00;;;;;;5096321;28;20476;-92
2021/01/05 18:53:10;;;;;;;68.10;35.40;;;1.30;94.00;;;;;;5114648;28;20476;-92
2021/01/05 18:55:36;;;;;;;65.47;32.70;;;1.30;94.00;;;;;;5096519;28;20031;-91
2021/01/05 18:58:03;;;;;;;50.65;26.88;;;1.30;94.00;;;;;;5114936;28;20499;-92
2021/01/05 19:00:35;;;;;;;60.80;30.15;;;1.30;93.90;;;;;;5114377;28;20526;-91
2021/01/05 19:03:02;;;;;;;60.35;33.08;;;1.30;94.00;;;;;;5114257;28;20024;-92
2021/01/05 19:05:28;;;;;;;68.90;35.47;;;1.30;94.00;;;;;;5096476;28;20387;-92
2021/01/05 19:07:54;;;;;;;69.57;37.97;;;1.30;94.00;;;;;;5114373;28;20051;-92
2021/01/05 19:10:26;;;;;;;54.25;24.98;;;1.30;94.00;;;;;;5095996;28;20043;-92
2021/01/05 19:12:53;;;;;;;61.03;26.23;;;1.30;93.90;;;;;;5095602;28;20019;-93
2021/01/05 19:15:20;;;;;;;62.17;33.75;;;1.30;94.00;;;;;;5113382;28;20043;-92
2021/01/05 19:17:47;;;;;;;62.30;32.17;;;1.30;94.00;;;;;;5095928;28;20024;-92
2021/01/05 19:20:21;;;;;;;60.20;31.42;;;1.20;94.10;;;;;;5113829;28;20098;-92
2021/01/05 19:22:47;;;;;;;68.80;36.88;;;1.20;94.20;;;;;;5111455;28;20047;-92
2021/01/05 19:25:19;;;;;;;62.35;31.95;;;1.20;94.20;;;;;;5114124;28;20050;-92
2021/01/05 19:27:49;;;;;;;71.30;40.63;;;1.20;94.20;;;;;;5114226;28;20019;-91
2021/01/05 19:30:16;;;;;;;86.65;42.88;;;1.20;94.20;;;;;;5113544;28;20072;-93
2021/01/05 19:32:44;;;;;;;65.78;32.95;;;1.20;94.40;;;;;;5113650;28;20027;-93
2021/01/05 19:35:11;;;;;;;60.78;30.20;;;1.20;94.30;;;;;;5096582;28;20020;-92
2021/01/05 19:37:36;;;;;;;76.20;38.28;;;1.20;94.30;;;;;;5092854;28;20023;-92
2021/01/05 19:40:04;;;;;;;60.13;27.25;;;1.20;94.40;;;;;;5095911;28;20020;-93
2021/01/05 19:42:36;;;;;;;68.15;32.72;;;1.20;94.70;;;;;;5095727;28;20030;-92
2021/01/05 19:45:03;;;;;;;72.90;37.33;;;1.20;94.40;;;;;;5095833;28;20101;-93
